sensor_id;sensor_type;location;lat;lon;timestamp;P1;durP1;ratioP1;P2;durP2;ratioP2
39656;SDS011;25337;51.478;7.510;2023-11-22T00:02:08;19.63;;;8.60;;
39656;SDS011;25337;51.478;7.510;2023-11-22T00:04:33;18.38;;;8.27;;
39656;SDS011;25337;51.478;7.510;2023-11-22T00:07:01;19.38;;;8.00;;
39656;SDS011;25337;51.478;7.510;2023-11-22T00:09:27;18.42;;;8.93;;
39656;SDS011;25337;51.478;7.510;2023-11-22T00:11:52;19.55;;;8.75;;
39656;SDS011;25337;51.478;7.510;2023-11-22T00:14:18;18.83;;;8.15;;
39656;SDS011;25337;51.478;7.510;2023-11-22T00:16:44;18.92;;;9.32;;
39656;SDS011;25337;51.478;7.510;2023-11-22T00:19:09;18.60;;;8.18;;
39656;SDS011;25337;51.478;7.510;2023-11-22T00:21:35;18.23;;;8.02;;
39656;SDS011;25337;51.478;7.510;2023-11-22T00:24:00;20.63;;;9.23;;
39656;SDS011;25337;51.478;7.510;2023-11-22T00:26:26;21.77;;;9.13;;
39656;SDS011;25337;51.478;7.510;2023-11-22T00:28:51;16.55;;;8.13;;
39656;SDS011;25337;51.478;7.510;2023-11-22T00:31:18;19.77;;;8.57;;
39656;SDS011;25337;51.478;7.510;2023-11-22T00:33:44;19.40;;;8.50;;
39656;SDS011;25337;51.478;7.510;2023-11-22T00:36:09;19.38;;;8.82;;
39656;SDS011;25337;51.478;7.510;2023-11-22T00:38:35;20.52;;;8.43;;
39656;SDS011;25337;51.478;7.510;2023-11-22T00:41:02;22.13;;;8.98;;
39656;SDS011;25337;51.478;7.510;2023-11-22T00:43:28;21.63;;;8.82;;
39656;SDS011;25337;51.478;7.510;2023-11-22T00:45:54;22.77;;;10.23;;
39656;SDS011;25337;51.478;7.510;2023-11-22T00:48:21;21.30;;;9.48;;
39656;SDS011;25337;51.478;7.510;2023-11-22T00:50:47;22.00;;;10.23;;
39656;SDS011;25337;51.478;7.510;2023-11-22T00:53:13;22.48;;;10.27;;
39656;SDS011;25337;51.478;7.510;2023-11-22T00:55:45;21.88;;;10.68;;
39656;SDS011;25337;51.478;7.510;2023-11-22T00:58:11;22.25;;;10.13;;
39656;SDS011;25337;51.478;7.510;2023-11-22T01:00:36;23.25;;;10.07;;
39656;SDS011;25337;51.478;7.510;2023-11-22T01:03:03;23.17;;;10.27;;
39656;SDS011;25337;51.478;7.510;2023-11-22T01:05:30;23.88;;;11.35;;
39656;SDS011;25337;51.478;7.510;2023-11-22T01:07:55;22.77;;;9.05;;
39656;SDS011;25337;51.478;7.510;2023-11-22T01:10:21;26.75;;;10.90;;
39656;SDS011;25337;51.478;7.510;2023-11-22T01:12:47;21.85;;;10.25;;
39656;SDS011;25337;51.478;7.510;2023-11-22T01:15:13;22.30;;;10.18;;
39656;SDS011;25337;51.478;7.510;2023-11-22T01:17:39;23.05;;;11.13;;
39656;SDS011;25337;51.478;7.510;2023-11-22T01:20:04;20.52;;;10.10;;
39656;SDS011;25337;51.478;7.510;2023-11-22T01:22:32;24.58;;;10.90;;
39656;SDS011;25337;51.478;7.510;2023-11-22T01:24:58;24.30;;;11.18;;
39656;SDS011;25337;51.478;7.510;2023-11-22T01:27:26;21.30;;;9.82;;
39656;SDS011;25337;51.478;7.510;2023-11-22T01:29:52;22.85;;;10.15;;
39656;SDS011;25337;51.478;7.510;2023-11-22T01:32:19;21.98;;;9.85;;
39656;SDS011;25337;51.478;7.510;2023-11-22T01:34:46;23.42;;;10.02;;
39656;SDS011;25337;51.478;7.510;2023-11-22T01:37:11;23.25;;;9.18;;
39656;SDS011;25337;51.478;7.510;2023-11-22T01:39:39;25.40;;;9.50;;
39656;SDS011;25337;51.478;7.510;2023-11-22T01:42:08;22.73;;;9.63;;
39656;SDS011;25337;51.478;7.510;2023-11-22T01:44:34;25.23;;;9.38;;
39656;SDS011;25337;51.478;7.510;2023-11-22T01:47:00;25.05;;;11.30;;
39656;SDS011;25337;51.478;7.510;2023-11-22T01:49:27;23.88;;;9.52;;
39656;SDS011;25337;51.478;7.510;2023-11-22T01:51:54;26.30;;;9.55;;
39656;SDS011;25337;51.478;7.510;2023-11-22T01:54:21;23.85;;;10.27;;
39656;SDS011;25337;51.478;7.510;2023-11-22T01:56:48;20.83;;;9.95;;
39656;SDS011;25337;51.478;7.510;2023-11-22T01:59:15;25.23;;;10.82;;
39656;SDS011;25337;51.478;7.510;2023-11-22T02:01:41;22.63;;;10.15;;
39656;SDS011;25337;51.478;7.510;2023-11-22T02:04:08;21.50;;;10.35;;
39656;SDS011;25337;51.478;7.510;2023-11-22T02:06:34;20.85;;;8.90;;
39656;SDS011;25337;51.478;7.510;2023-11-22T02:09:00;22.80;;;8.68;;
39656;SDS011;25337;51.478;7.510;2023-11-22T02:11:26;22.10;;;9.60;;
39656;SDS011;25337;51.478;7.510;2023-11-22T02:13:55;23.67;;;10.32;;
39656;SDS011;25337;51.478;7.510;2023-11-22T02:16:20;20.33;;;9.00;;
39656;SDS011;25337;51.478;7.510;2023-11-22T02:18:47;18.40;;;8.90;;
39656;SDS011;25337;51.478;7.510;2023-11-22T02:21:18;20.40;;;9.57;;
39656;SDS011;25337;51.478;7.510;2023-11-22T02:23:46;20.45;;;8.38;;
39656;SDS011;25337;51.478;7.510;2023-11-22T02:26:14;18.58;;;7.95;;
39656;SDS011;25337;51.478;7.510;2023-11-22T02:28:43;22.98;;;8.77;;
39656;SDS011;25337;51.478;7.510;2023-11-22T02:31:09;18.38;;;8.13;;
39656;SDS011;25337;51.478;7.510;2023-11-22T02:33:34;16.58;;;7.78;;
39656;SDS011;25337;51.478;7.510;2023-11-22T02:36:00;15.60;;;7.13;;
39656;SDS011;25337;51.478;7.510;2023-11-22T02:38:27;20.05;;;8.90;;
39656;SDS011;25337;51.478;7.510;2023-11-22T02:40:53;19.05;;;8.13;;
39656;SDS011;25337;51.478;7.510;2023-11-22T02:43:19;20.33;;;8.18;;
39656;SDS011;25337;51.478;7.510;2023-11-22T02:45:46;16.50;;;7.10;;
39656;SDS011;25337;51.478;7.510;2023-11-22T02:48:12;13.88;;;5.93;;
39656;SDS011;25337;51.478;7.510;2023-11-22T02:50:38;15.20;;;6.10;;
39656;SDS011;25337;51.478;7.510;2023-11-22T02:53:08;13.75;;;6.05;;
39656;SDS011;25337;51.478;7.510;2023-11-22T02:55:34;17.52;;;6.80;;
39656;SDS011;25337;51.478;7.510;2023-11-22T02:57:59;17.60;;;6.32;;
39656;SDS011;25337;51.478;7.510;2023-11-22T03:00:25;17.75;;;7.05;;
39656;SDS011;25337;51.478;7.510;2023-11-22T03:02:51;17.73;;;6.97;;
39656;SDS011;25337;51.478;7.510;2023-11-22T03:05:19;16.38;;;6.95;;
39656;SDS011;25337;51.478;7.510;2023-11-22T03:07:47;17.40;;;7.10;;
39656;SDS011;25337;51.478;7.510;2023-11-22T03:10:15;15.38;;;6.35;;
39656;SDS011;25337;51.478;7.510;2023-11-22T03:12:43;21.50;;;7.25;;
39656;SDS011;25337;51.478;7.510;2023-11-22T03:15:11;16.63;;;6.90;;
39656;SDS011;25337;51.478;7.510;2023-11-22T03:17:37;16.67;;;7.35;;
39656;SDS011;25337;51.478;7.510;2023-11-22T03:20:06;16.23;;;6.65;;
39656;SDS011;25337;51.478;7.510;2023-11-22T03:22:36;17.75;;;7.30;;
39656;SDS011;25337;51.478;7.510;2023-11-22T03:25:02;14.60;;;7.00;;
39656;SDS011;25337;51.478;7.510;2023-11-22T03:27:31;17.02;;;6.90;;
39656;SDS011;25337;51.478;7.510;2023-11-22T03:29:57;17.52;;;7.63;;
39656;SDS011;25337;51.478;7.510;2023-11-22T03:32:24;16.35;;;6.40;;
39656;SDS011;25337;51.478;7.510;2023-11-22T03:34:50;18.75;;;7.45;;
39656;SDS011;25337;51.478;7.510;2023-11-22T03:37:16;14.52;;;5.93;;
39656;SDS011;25337;51.478;7.510;2023-11-22T03:39:42;17.75;;;6.47;;
39656;SDS011;25337;51.478;7.510;2023-11-22T03:44:40;17.35;;;6.90;;
39656;SDS011;25337;51.478;7.510;2023-11-22T03:47:05;15.60;;;6.40;;
39656;SDS011;25337;51.478;7.510;2023-11-22T03:49:31;16.98;;;6.78;;
39656;SDS011;25337;51.478;7.510;2023-11-22T03:51:57;16.30;;;6.43;;
39656;SDS011;25337;51.478;7.510;2023-11-22T03:54:23;15.63;;;7.30;;
39656;SDS011;25337;51.478;7.510;2023-11-22T03:56:48;14.65;;;6.20;;
39656;SDS011;25337;51.478;7.510;2023-11-22T03:59:14;14.60;;;5.68;;
39656;SDS011;25337;51.478;7.510;2023-11-22T04:01:40;15.63;;;6.15;;
39656;SDS011;25337;51.478;7.510;2023-11-22T04:04:05;15.82;;;5.78;;
39656;SDS011;25337;51.478;7.510;2023-11-22T04:06:31;16.52;;;6.15;;
39656;SDS011;25337;51.478;7.510;2023-11-22T04:08:58;18.15;;;6.20;;
39656;SDS011;25337;51.478;7.510;2023-11-22T04:11:24;17.40;;;6.93;;
39656;SDS011;25337;51.478;7.510;2023-11-22T04:13:50;15.52;;;5.50;;
39656;SDS011;25337;51.478;7.510;2023-11-22T04:16:15;16.17;;;6.00;;
39656;SDS011;25337;51.478;7.510;2023-11-22T04:18:42;16.27;;;6.38;;
39656;SDS011;25337;51.478;7.510;2023-11-22T04:21:08;18.95;;;7.18;;
39656;SDS011;25337;51.478;7.510;2023-11-22T04:23:34;18.45;;;7.50;;
39656;SDS011;25337;51.478;7.510;2023-11-22T04:26:00;27.10;;;8.20;;
39656;SDS011;25337;51.478;7.510;2023-11-22T04:28:27;21.67;;;7.78;;
39656;SDS011;25337;51.478;7.510;2023-11-22T04:30:55;21.48;;;8.45;;
39656;SDS011;25337;51.478;7.510;2023-11-22T04:33:21;21.58;;;8.23;;
39656;SDS011;25337;51.478;7.510;2023-11-22T04:35:49;20.73;;;8.52;;
39656;SDS011;25337;51.478;7.510;2023-11-22T04:38:15;21.23;;;8.23;;
39656;SDS011;25337;51.478;7.510;2023-11-22T04:40:42;21.70;;;8.63;;
39656;SDS011;25337;51.478;7.510;2023-11-22T04:43:08;22.30;;;8.70;;
39656;SDS011;25337;51.478;7.510;2023-11-22T04:45:34;21.23;;;8.45;;
39656;SDS011;25337;51.478;7.510;2023-11-22T04:48:00;17.48;;;7.22;;
39656;SDS011;25337;51.478;7.510;2023-11-22T04:50:26;19.52;;;8.02;;
39656;SDS011;25337;51.478;7.510;2023-11-22T04:52:51;20.30;;;7.93;;
39656;SDS011;25337;51.478;7.510;2023-11-22T04:55:17;23.00;;;8.73;;
39656;SDS011;25337;51.478;7.510;2023-11-22T05:00:13;25.10;;;8.40;;
39656;SDS011;25337;51.478;7.510;2023-11-22T05:02:42;22.58;;;8.20;;
39656;SDS011;25337;51.478;7.510;2023-11-22T05:05:08;25.48;;;7.97;;
39656;SDS011;25337;51.478;7.510;2023-11-22T05:07:36;21.45;;;8.50;;
39656;SDS011;25337;51.478;7.510;2023-11-22T05:10:03;23.70;;;9.05;;
39656;SDS011;25337;51.478;7.510;2023-11-22T05:12:29;27.23;;;8.55;;
39656;SDS011;25337;51.478;7.510;2023-11-22T05:14:54;19.85;;;8.10;;
39656;SDS011;25337;51.478;7.510;2023-11-22T05:17:20;19.85;;;7.90;;
39656;SDS011;25337;51.478;7.510;2023-11-22T05:19:46;24.33;;;9.15;;
39656;SDS011;25337;51.478;7.510;2023-11-22T05:22:12;28.60;;;8.73;;
39656;SDS011;25337;51.478;7.510;2023-11-22T05:24:37;21.88;;;8.70;;
39656;SDS011;25337;51.478;7.510;2023-11-22T05:27:06;24.95;;;7.88;;
39656;SDS011;25337;51.478;7.510;2023-11-22T05:29:33;19.23;;;8.57;;
39656;SDS011;25337;51.478;7.510;2023-11-22T05:31:59;23.95;;;8.32;;
39656;SDS011;25337;51.478;7.510;2023-11-22T05:34:24;19.35;;;8.02;;
39656;SDS011;25337;51.478;7.510;2023-11-22T05:36:52;17.70;;;7.75;;
39656;SDS011;25337;51.478;7.510;2023-11-22T05:39:17;24.08;;;8.25;;
39656;SDS011;25337;51.478;7.510;2023-11-22T05:41:43;20.67;;;8.05;;
39656;SDS011;25337;51.478;7.510;2023-11-22T05:44:09;18.02;;;7.38;;
39656;SDS011;25337;51.478;7.510;2023-11-22T05:46:35;25.23;;;9.10;;
39656;SDS011;25337;51.478;7.510;2023-11-22T05:49:00;20.70;;;7.38;;
39656;SDS011;25337;51.478;7.510;2023-11-22T05:51:26;20.85;;;7.57;;
39656;SDS011;25337;51.478;7.510;2023-11-22T05:53:54;20.38;;;8.32;;
39656;SDS011;25337;51.478;7.510;2023-11-22T05:56:19;23.20;;;8.07;;
39656;SDS011;25337;51.478;7.510;2023-11-22T05:58:45;18.92;;;8.07;;
39656;SDS011;25337;51.478;7.510;2023-11-22T06:01:11;25.27;;;8.35;;
39656;SDS011;25337;51.478;7.510;2023-11-22T06:03:39;22.90;;;9.00;;
39656;SDS011;25337;51.478;7.510;2023-11-22T06:06:05;24.23;;;8.95;;
39656;SDS011;25337;51.478;7.510;2023-11-22T06:08:31;21.88;;;8.25;;
39656;SDS011;25337;51.478;7.510;2023-11-22T06:11:02;23.27;;;8.45;;
39656;SDS011;25337;51.478;7.510;2023-11-22T06:13:28;19.45;;;7.55;;
39656;SDS011;25337;51.478;7.510;2023-11-22T06:15:54;20.67;;;7.75;;
39656;SDS011;25337;51.478;7.510;2023-11-22T06:18:19;23.27;;;9.10;;
39656;SDS011;25337;51.478;7.510;2023-11-22T06:20:45;27.95;;;8.50;;
39656;SDS011;25337;51.478;7.510;2023-11-22T06:23:13;25.95;;;10.10;;
39656;SDS011;25337;51.478;7.510;2023-11-22T06:25:38;23.80;;;9.25;;
39656;SDS011;25337;51.478;7.510;2023-11-22T06:28:08;20.13;;;8.40;;
39656;SDS011;25337;51.478;7.510;2023-11-22T06:30:34;25.08;;;8.98;;
39656;SDS011;25337;51.478;7.510;2023-11-22T06:33:00;21.23;;;8.48;;
39656;SDS011;25337;51.478;7.510;2023-11-22T06:35:26;22.13;;;8.73;;
39656;SDS011;25337;51.478;7.510;2023-11-22T06:37:54;25.63;;;9.35;;
39656;SDS011;25337;51.478;7.510;2023-11-22T06:40:19;25.85;;;9.88;;
39656;SDS011;25337;51.478;7.510;2023-11-22T06:42:45;26.58;;;9.45;;
39656;SDS011;25337;51.478;7.510;2023-11-22T06:45:11;27.13;;;10.20;;
39656;SDS011;25337;51.478;7.510;2023-11-22T06:47:40;26.00;;;9.70;;
39656;SDS011;25337;51.478;7.510;2023-11-22T06:50:09;25.52;;;10.15;;
39656;SDS011;25337;51.478;7.510;2023-11-22T06:52:39;26.98;;;9.88;;
39656;SDS011;25337;51.478;7.510;2023-11-22T06:55:05;27.77;;;10.15;;
39656;SDS011;25337;51.478;7.510;2023-11-22T06:57:33;29.77;;;9.82;;
39656;SDS011;25337;51.478;7.510;2023-11-22T06:59:59;25.23;;;10.20;;
39656;SDS011;25337;51.478;7.510;2023-11-22T07:02:26;27.02;;;10.52;;
39656;SDS011;25337;51.478;7.510;2023-11-22T07:04:54;27.55;;;10.68;;
39656;SDS011;25337;51.478;7.510;2023-11-22T07:07:19;35.28;;;11.10;;
39656;SDS011;25337;51.478;7.510;2023-11-22T07:09:45;25.75;;;10.10;;
39656;SDS011;25337;51.478;7.510;2023-11-22T07:12:11;27.88;;;10.25;;
39656;SDS011;25337;51.478;7.510;2023-11-22T07:14:37;36.33;;;11.10;;
39656;SDS011;25337;51.478;7.510;2023-11-22T07:17:03;23.88;;;9.43;;
39656;SDS011;25337;51.478;7.510;2023-11-22T07:19:32;27.20;;;10.50;;
39656;SDS011;25337;51.478;7.510;2023-11-22T07:21:59;28.40;;;10.68;;
39656;SDS011;25337;51.478;7.510;2023-11-22T07:24:26;28.08;;;11.77;;
39656;SDS011;25337;51.478;7.510;2023-11-22T07:26:52;26.35;;;10.48;;
39656;SDS011;25337;51.478;7.510;2023-11-22T07:29:18;30.00;;;10.40;;
39656;SDS011;25337;51.478;7.510;2023-11-22T07:31:43;29.92;;;11.10;;
39656;SDS011;25337;51.478;7.510;2023-11-22T07:34:09;33.85;;;11.55;;
39656;SDS011;25337;51.478;7.510;2023-11-22T07:36:36;31.17;;;11.23;;
39656;SDS011;25337;51.478;7.510;2023-11-22T07:39:04;33.13;;;11.38;;
39656;SDS011;25337;51.478;7.510;2023-11-22T07:41:30;27.90;;;10.93;;
39656;SDS011;25337;51.478;7.510;2023-11-22T07:43:56;31.90;;;11.48;;
39656;SDS011;25337;51.478;7.510;2023-11-22T07:46:23;32.63;;;11.48;;
39656;SDS011;25337;51.478;7.510;2023-11-22T07:48:49;29.42;;;10.80;;
39656;SDS011;25337;51.478;7.510;2023-11-22T07:51:17;27.38;;;10.40;;
39656;SDS011;25337;51.478;7.510;2023-11-22T07:53:43;28.77;;;11.02;;
39656;SDS011;25337;51.478;7.510;2023-11-22T07:56:09;34.22;;;11.27;;
39656;SDS011;25337;51.478;7.510;2023-11-22T07:58:36;29.77;;;11.68;;
39656;SDS011;25337;51.478;7.510;2023-11-22T08:01:02;26.35;;;10.25;;
39656;SDS011;25337;51.478;7.510;2023-11-22T08:03:31;27.75;;;10.75;;
39656;SDS011;25337;51.478;7.510;2023-11-22T08:05:57;36.25;;;12.85;;
39656;SDS011;25337;51.478;7.510;2023-11-22T08:08:22;29.88;;;12.98;;
39656;SDS011;25337;51.478;7.510;2023-11-22T08:10:49;29.48;;;10.73;;
39656;SDS011;25337;51.478;7.510;2023-11-22T08:13:18;29.05;;;11.90;;
39656;SDS011;25337;51.478;7.510;2023-11-22T08:15:47;24.88;;;10.30;;
39656;SDS011;25337;51.478;7.510;2023-11-22T08:18:13;29.75;;;10.55;;
39656;SDS011;25337;51.478;7.510;2023-11-22T08:20:41;30.20;;;11.38;;
39656;SDS011;25337;51.478;7.510;2023-11-22T08:23:08;30.85;;;11.48;;
39656;SDS011;25337;51.478;7.510;2023-11-22T08:25:35;31.70;;;11.63;;
39656;SDS011;25337;51.478;7.510;2023-11-22T08:28:03;32.67;;;11.77;;
39656;SDS011;25337;51.478;7.510;2023-11-22T08:30:29;30.40;;;11.70;;
39656;SDS011;25337;51.478;7.510;2023-11-22T08:32:57;36.47;;;11.07;;
39656;SDS011;25337;51.478;7.510;2023-11-22T08:35:23;26.30;;;10.38;;
39656;SDS011;25337;51.478;7.510;2023-11-22T08:37:49;26.35;;;9.70;;
39656;SDS011;25337;51.478;7.510;2023-11-22T08:40:15;22.77;;;9.60;;
39656;SDS011;25337;51.478;7.510;2023-11-22T08:42:45;19.07;;;7.63;;
39656;SDS011;25337;51.478;7.510;2023-11-22T08:45:11;14.65;;;6.28;;
39656;SDS011;25337;51.478;7.510;2023-11-22T08:47:37;13.38;;;5.82;;
39656;SDS011;25337;51.478;7.510;2023-11-22T08:50:04;14.50;;;6.18;;
39656;SDS011;25337;51.478;7.510;2023-11-22T08:52:31;13.88;;;5.97;;
39656;SDS011;25337;51.478;7.510;2023-11-22T08:54:57;12.27;;;5.22;;
39656;SDS011;25337;51.478;7.510;2023-11-22T08:57:22;13.00;;;5.65;;
39656;SDS011;25337;51.478;7.510;2023-11-22T08:59:48;13.52;;;5.85;;
39656;SDS011;25337;51.478;7.510;2023-11-22T09:02:14;11.88;;;5.03;;
39656;SDS011;25337;51.478;7.510;2023-11-22T09:04:41;10.65;;;4.75;;
39656;SDS011;25337;51.478;7.510;2023-11-22T09:07:07;11.48;;;4.72;;
39656;SDS011;25337;51.478;7.510;2023-11-22T09:09:35;14.77;;;4.78;;
39656;SDS011;25337;51.478;7.510;2023-11-22T09:12:01;13.77;;;5.30;;
39656;SDS011;25337;51.478;7.510;2023-11-22T09:14:27;10.65;;;4.45;;
39656;SDS011;25337;51.478;7.510;2023-11-22T09:16:56;11.93;;;5.22;;
39656;SDS011;25337;51.478;7.510;2023-11-22T09:19:21;13.07;;;4.88;;
39656;SDS011;25337;51.478;7.510;2023-11-22T09:21:48;11.93;;;4.40;;
39656;SDS011;25337;51.478;7.510;2023-11-22T09:24:13;11.48;;;5.07;;
39656;SDS011;25337;51.478;7.510;2023-11-22T09:26:39;12.63;;;4.63;;
39656;SDS011;25337;51.478;7.510;2023-11-22T09:29:06;11.50;;;4.85;;
39656;SDS011;25337;51.478;7.510;2023-11-22T09:31:32;12.13;;;4.90;;
39656;SDS011;25337;51.478;7.510;2023-11-22T09:33:57;10.80;;;4.70;;
39656;SDS011;25337;51.478;7.510;2023-11-22T09:36:23;11.00;;;4.80;;
39656;SDS011;25337;51.478;7.510;2023-11-22T09:38:52;9.98;;;4.32;;
39656;SDS011;25337;51.478;7.510;2023-11-22T09:41:18;12.95;;;5.18;;
39656;SDS011;25337;51.478;7.510;2023-11-22T09:43:44;11.07;;;4.85;;
39656;SDS011;25337;51.478;7.510;2023-11-22T09:46:14;11.75;;;5.53;;
39656;SDS011;25337;51.478;7.510;2023-11-22T09:48:42;11.60;;;5.13;;
39656;SDS011;25337;51.478;7.510;2023-11-22T09:56:08;10.85;;;4.60;;
39656;SDS011;25337;51.478;7.510;2023-11-22T09:58:35;12.52;;;4.35;;
39656;SDS011;25337;51.478;7.510;2023-11-22T10:01:04;11.40;;;4.40;;
39656;SDS011;25337;51.478;7.510;2023-11-22T10:03:32;10.98;;;4.30;;
39656;SDS011;25337;51.478;7.510;2023-11-22T10:05:58;11.10;;;4.78;;
39656;SDS011;25337;51.478;7.510;2023-11-22T10:08:27;10.98;;;4.50;;
39656;SDS011;25337;51.478;7.510;2023-11-22T10:10:57;11.88;;;4.90;;
39656;SDS011;25337;51.478;7.510;2023-11-22T10:13:23;12.75;;;4.38;;
39656;SDS011;25337;51.478;7.510;2023-11-22T10:15:49;10.60;;;4.38;;
39656;SDS011;25337;51.478;7.510;2023-11-22T10:18:17;14.05;;;5.40;;
39656;SDS011;25337;51.478;7.510;2023-11-22T10:20:48;11.98;;;4.68;;
39656;SDS011;25337;51.478;7.510;2023-11-22T10:23:17;12.55;;;4.82;;
39656;SDS011;25337;51.478;7.510;2023-11-22T10:25:47;9.77;;;4.00;;
39656;SDS011;25337;51.478;7.510;2023-11-22T10:28:20;10.95;;;4.65;;
39656;SDS011;25337;51.478;7.510;2023-11-22T10:30:48;11.63;;;4.60;;
39656;SDS011;25337;51.478;7.510;2023-11-22T10:33:17;9.98;;;4.30;;
39656;SDS011;25337;51.478;7.510;2023-11-22T10:35:48;10.32;;;4.53;;
39656;SDS011;25337;51.478;7.510;2023-11-22T10:38:16;12.15;;;4.35;;
39656;SDS011;25337;51.478;7.510;2023-11-22T10:40:42;11.18;;;4.30;;
39656;SDS011;25337;51.478;7.510;2023-11-22T10:43:13;9.18;;;3.78;;
39656;SDS011;25337;51.478;7.510;2023-11-22T10:45:39;10.40;;;3.93;;
39656;SDS011;25337;51.478;7.510;2023-11-22T10:48:09;9.70;;;4.00;;
39656;SDS011;25337;51.478;7.510;2023-11-22T10:50:36;11.25;;;3.50;;
39656;SDS011;25337;51.478;7.510;2023-11-22T10:53:02;8.20;;;3.33;;
39656;SDS011;25337;51.478;7.510;2023-11-22T10:55:32;9.82;;;3.47;;
39656;SDS011;25337;51.478;7.510;2023-11-22T10:58:04;11.00;;;3.90;;
39656;SDS011;25337;51.478;7.510;2023-11-22T11:00:31;8.82;;;3.45;;
39656;SDS011;25337;51.478;7.510;2023-11-22T11:03:03;8.45;;;3.42;;
39656;SDS011;25337;51.478;7.510;2023-11-22T11:05:38;10.65;;;4.35;;
39656;SDS011;25337;51.478;7.510;2023-11-22T11:10:42;10.18;;;3.58;;
39656;SDS011;25337;51.478;7.510;2023-11-22T11:13:10;8.60;;;3.17;;
39656;SDS011;25337;51.478;7.510;2023-11-22T11:15:37;8.52;;;3.72;;
39656;SDS011;25337;51.478;7.510;2023-11-22T11:18:07;11.02;;;4.10;;
39656;SDS011;25337;51.478;7.510;2023-11-22T11:20:51;9.63;;;4.57;;
39656;SDS011;25337;51.478;7.510;2023-11-22T11:23:22;7.75;;;3.15;;
39656;SDS011;25337;51.478;7.510;2023-11-22T11:25:49;8.43;;;2.70;;
39656;SDS011;25337;51.478;7.510;2023-11-22T11:28:18;13.02;;;4.22;;
39656;SDS011;25337;51.478;7.510;2023-11-22T11:30:48;7.30;;;2.88;;
39656;SDS011;25337;51.478;7.510;2023-11-22T11:33:27;7.68;;;2.83;;
39656;SDS011;25337;51.478;7.510;2023-11-22T11:36:02;8.05;;;3.00;;
39656;SDS011;25337;51.478;7.510;2023-11-22T11:38:32;12.35;;;3.85;;
39656;SDS011;25337;51.478;7.510;2023-11-22T11:41:08;9.02;;;3.13;;
39656;SDS011;25337;51.478;7.510;2023-11-22T11:43:41;8.70;;;3.53;;
39656;SDS011;25337;51.478;7.510;2023-11-22T11:46:09;7.40;;;2.72;;
39656;SDS011;25337;51.478;7.510;2023-11-22T11:48:36;7.90;;;2.17;;
39656;SDS011;25337;51.478;7.510;2023-11-22T11:51:01;7.22;;;2.75;;
39656;SDS011;25337;51.478;7.510;2023-11-22T11:53:27;7.10;;;2.72;;
39656;SDS011;25337;51.478;7.510;2023-11-22T11:55:56;7.18;;;2.28;;
39656;SDS011;25337;51.478;7.510;2023-11-22T11:58:22;5.70;;;2.33;;
39656;SDS011;25337;51.478;7.510;2023-11-22T12:00:50;8.63;;;2.78;;
39656;SDS011;25337;51.478;7.510;2023-11-22T12:03:17;6.25;;;2.40;;
39656;SDS011;25337;51.478;7.510;2023-11-22T12:05:46;7.20;;;2.85;;
39656;SDS011;25337;51.478;7.510;2023-11-22T12:08:12;8.48;;;3.08;;
39656;SDS011;25337;51.478;7.510;2023-11-22T12:10:40;6.63;;;2.50;;
39656;SDS011;25337;51.478;7.510;2023-11-22T12:13:07;9.38;;;2.78;;
39656;SDS011;25337;51.478;7.510;2023-11-22T12:15:33;6.30;;;2.38;;
39656;SDS011;25337;51.478;7.510;2023-11-22T12:17:59;7.20;;;2.70;;
39656;SDS011;25337;51.478;7.510;2023-11-22T12:20:29;7.67;;;3.10;;
39656;SDS011;25337;51.478;7.510;2023-11-22T12:22:57;9.45;;;3.45;;
39656;SDS011;25337;51.478;7.510;2023-11-22T12:25:29;8.23;;;3.00;;
39656;SDS011;25337;51.478;7.510;2023-11-22T12:27:55;10.52;;;3.20;;
39656;SDS011;25337;51.478;7.510;2023-11-22T12:30:31;7.72;;;2.63;;
39656;SDS011;25337;51.478;7.510;2023-11-22T12:33:00;11.07;;;3.00;;
39656;SDS011;25337;51.478;7.510;2023-11-22T12:35:27;6.72;;;2.35;;
39656;SDS011;25337;51.478;7.510;2023-11-22T12:37:54;8.88;;;2.50;;
39656;SDS011;25337;51.478;7.510;2023-11-22T12:40:20;7.88;;;3.03;;
39656;SDS011;25337;51.478;7.510;2023-11-22T12:42:52;7.88;;;2.95;;
39656;SDS011;25337;51.478;7.510;2023-11-22T12:45:21;6.35;;;2.30;;
39656;SDS011;25337;51.478;7.510;2023-11-22T12:47:49;7.25;;;2.60;;
39656;SDS011;25337;51.478;7.510;2023-11-22T12:50:28;7.82;;;2.60;;
39656;SDS011;25337;51.478;7.510;2023-11-22T12:53:10;6.35;;;2.13;;
39656;SDS011;25337;51.478;7.510;2023-11-22T12:58:03;8.70;;;2.50;;
39656;SDS011;25337;51.478;7.510;2023-11-22T13:00:29;6.47;;;2.33;;
39656;SDS011;25337;51.478;7.510;2023-11-22T13:02:58;7.13;;;2.15;;
39656;SDS011;25337;51.478;7.510;2023-11-22T13:05:24;7.18;;;2.58;;
39656;SDS011;25337;51.478;7.510;2023-11-22T13:07:50;6.28;;;2.40;;
39656;SDS011;25337;51.478;7.510;2023-11-22T13:10:16;5.93;;;2.05;;
39656;SDS011;25337;51.478;7.510;2023-11-22T13:12:43;8.70;;;2.30;;
39656;SDS011;25337;51.478;7.510;2023-11-22T13:15:12;6.38;;;2.30;;
39656;SDS011;25337;51.478;7.510;2023-11-22T13:17:38;6.45;;;2.08;;
39656;SDS011;25337;51.478;7.510;2023-11-22T13:20:07;5.90;;;2.00;;
39656;SDS011;25337;51.478;7.510;2023-11-22T13:22:42;6.00;;;1.98;;
39656;SDS011;25337;51.478;7.510;2023-11-22T13:25:08;5.63;;;1.80;;
39656;SDS011;25337;51.478;7.510;2023-11-22T13:27:40;6.88;;;1.83;;
39656;SDS011;25337;51.478;7.510;2023-11-22T13:30:06;5.40;;;2.03;;
39656;SDS011;25337;51.478;7.510;2023-11-22T13:32:32;5.07;;;1.88;;
39656;SDS011;25337;51.478;7.510;2023-11-22T13:35:00;6.15;;;2.10;;
39656;SDS011;25337;51.478;7.510;2023-11-22T13:37:26;5.63;;;1.83;;
39656;SDS011;25337;51.478;7.510;2023-11-22T13:39:52;10.50;;;2.30;;
39656;SDS011;25337;51.478;7.510;2023-11-22T13:42:18;7.32;;;2.50;;
39656;SDS011;25337;51.478;7.510;2023-11-22T13:44:43;8.05;;;2.63;;
39656;SDS011;25337;51.478;7.510;2023-11-22T13:47:09;8.05;;;2.60;;
39656;SDS011;25337;51.478;7.510;2023-11-22T13:49:35;7.15;;;2.50;;
39656;SDS011;25337;51.478;7.510;2023-11-22T13:52:02;9.75;;;2.65;;
39656;SDS011;25337;51.478;7.510;2023-11-22T13:54:28;8.73;;;2.90;;
39656;SDS011;25337;51.478;7.510;2023-11-22T13:56:54;14.57;;;2.85;;
39656;SDS011;25337;51.478;7.510;2023-11-22T13:59:19;7.88;;;2.33;;
39656;SDS011;25337;51.478;7.510;2023-11-22T14:01:45;7.55;;;2.22;;
39656;SDS011;25337;51.478;7.510;2023-11-22T14:04:11;5.70;;;1.80;;
39656;SDS011;25337;51.478;7.510;2023-11-22T14:06:37;5.65;;;1.83;;
39656;SDS011;25337;51.478;7.510;2023-11-22T14:09:02;6.18;;;2.17;;
39656;SDS011;25337;51.478;7.510;2023-11-22T14:11:28;6.63;;;2.25;;
39656;SDS011;25337;51.478;7.510;2023-11-22T14:13:55;5.80;;;2.05;;
39656;SDS011;25337;51.478;7.510;2023-11-22T14:16:20;6.93;;;2.63;;
39656;SDS011;25337;51.478;7.510;2023-11-22T14:18:46;7.22;;;2.38;;
39656;SDS011;25337;51.478;7.510;2023-11-22T14:21:12;6.63;;;2.42;;
39656;SDS011;25337;51.478;7.510;2023-11-22T14:23:42;6.32;;;2.20;;
39656;SDS011;25337;51.478;7.510;2023-11-22T14:26:07;6.97;;;2.22;;
39656;SDS011;25337;51.478;7.510;2023-11-22T14:28:33;7.38;;;2.72;;
39656;SDS011;25337;51.478;7.510;2023-11-22T14:30:59;7.15;;;2.60;;
39656;SDS011;25337;51.478;7.510;2023-11-22T14:33:26;6.65;;;2.40;;
39656;SDS011;25337;51.478;7.510;2023-11-22T14:35:56;10.07;;;2.40;;
39656;SDS011;25337;51.478;7.510;2023-11-22T14:38:22;6.57;;;2.40;;
39656;SDS011;25337;51.478;7.510;2023-11-22T14:40:49;8.13;;;2.67;;
39656;SDS011;25337;51.478;7.510;2023-11-22T14:43:15;7.13;;;2.30;;
39656;SDS011;25337;51.478;7.510;2023-11-22T14:45:40;8.07;;;2.38;;
39656;SDS011;25337;51.478;7.510;2023-11-22T14:48:07;6.78;;;2.30;;
39656;SDS011;25337;51.478;7.510;2023-11-22T14:50:33;6.90;;;2.53;;